sensor_id;sensor_type;location;lat;lon;timestamp;P1;durP1;ratioP1;P2;durP2;ratioP2
66437;SDS011;54537;47.972;11.662;2023-03-14T00:02:14;1.00;;;0.63;;
66437;SDS011;54537;47.972;11.662;2023-03-14T00:04:41;1.15;;;0.80;;
66437;SDS011;54537;47.972;11.662;2023-03-14T00:07:07;2.03;;;0.85;;
66437;SDS011;54537;47.972;11.662;2023-03-14T00:09:34;1.50;;;0.70;;
66437;SDS011;54537;47.972;11.662;2023-03-14T00:12:00;1.10;;;0.70;;
66437;SDS011;54537;47.972;11.662;2023-03-14T00:14:28;0.85;;;0.65;;
66437;SDS011;54537;47.972;11.662;2023-03-14T00:16:54;1.13;;;0.73;;
66437;SDS011;54537;47.972;11.662;2023-03-14T00:19:22;2.20;;;1.52;;
66437;SDS011;54537;47.972;11.662;2023-03-14T00:21:49;1.73;;;1.00;;
66437;SDS011;54537;47.972;11.662;2023-03-14T00:24:15;9.82;;;1.00;;
66437;SDS011;54537;47.972;11.662;2023-03-14T00:26:42;1.15;;;0.60;;
66437;SDS011;54537;47.972;11.662;2023-03-14T00:29:08;0.82;;;0.60;;
66437;SDS011;54537;47.972;11.662;2023-03-14T00:31:35;1.55;;;0.57;;
66437;SDS011;54537;47.972;11.662;2023-03-14T00:34:02;0.40;;;0.40;;
66437;SDS011;54537;47.972;11.662;2023-03-14T00:36:30;0.98;;;0.50;;
66437;SDS011;54537;47.972;11.662;2023-03-14T00:38:56;0.93;;;0.40;;
66437;SDS011;54537;47.972;11.662;2023-03-14T00:41:23;0.70;;;0.57;;
66437;SDS011;54537;47.972;11.662;2023-03-14T00:43:49;0.77;;;0.50;;
66437;SDS011;54537;47.972;11.662;2023-03-14T00:46:17;1.23;;;0.40;;
66437;SDS011;54537;47.972;11.662;2023-03-14T00:48:44;1.45;;;0.52;;
66437;SDS011;54537;47.972;11.662;2023-03-14T00:51:11;0.60;;;0.50;;
66437;SDS011;54537;47.972;11.662;2023-03-14T00:53:40;1.55;;;0.77;;
66437;SDS011;54537;47.972;11.662;2023-03-14T00:56:08;0.95;;;0.57;;
66437;SDS011;54537;47.972;11.662;2023-03-14T00:58:35;0.90;;;0.60;;
66437;SDS011;54537;47.972;11.662;2023-03-14T01:01:05;1.42;;;0.80;;
66437;SDS011;54537;47.972;11.662;2023-03-14T01:03:32;0.63;;;0.35;;
66437;SDS011;54537;47.972;11.662;2023-03-14T01:06:06;0.52;;;0.32;;
66437;SDS011;54537;47.972;11.662;2023-03-14T01:08:33;0.80;;;0.40;;
66437;SDS011;54537;47.972;11.662;2023-03-14T01:11:01;0.63;;;0.60;;
66437;SDS011;54537;47.972;11.662;2023-03-14T01:13:31;0.55;;;0.47;;
66437;SDS011;54537;47.972;11.662;2023-03-14T01:16:00;1.75;;;0.70;;
66437;SDS011;54537;47.972;11.662;2023-03-14T01:18:27;0.30;;;0.22;;
66437;SDS011;54537;47.972;11.662;2023-03-14T01:20:54;0.52;;;0.45;;
66437;SDS011;54537;47.972;11.662;2023-03-14T01:23:20;0.40;;;0.40;;
66437;SDS011;54537;47.972;11.662;2023-03-14T01:25:47;1.25;;;0.60;;
66437;SDS011;54537;47.972;11.662;2023-03-14T01:28:15;0.57;;;0.38;;
66437;SDS011;54537;47.972;11.662;2023-03-14T01:30:41;0.60;;;0.60;;
66437;SDS011;54537;47.972;11.662;2023-03-14T01:33:08;1.20;;;0.68;;
66437;SDS011;54537;47.972;11.662;2023-03-14T01:35:34;1.20;;;0.30;;
66437;SDS011;54537;47.972;11.662;2023-03-14T01:38:01;2.95;;;0.50;;
66437;SDS011;54537;47.972;11.662;2023-03-14T01:40:27;0.40;;;0.40;;
66437;SDS011;54537;47.972;11.662;2023-03-14T01:42:54;0.30;;;0.30;;
66437;SDS011;54537;47.972;11.662;2023-03-14T01:48:28;0.38;;;0.38;;
66437;SDS011;54537;47.972;11.662;2023-03-14T01:53:24;0.70;;;0.32;;
66437;SDS011;54537;47.972;11.662;2023-03-14T01:55:51;0.90;;;0.40;;
66437;SDS011;54537;47.972;11.662;2023-03-14T01:58:18;1.00;;;0.40;;
66437;SDS011;54537;47.972;11.662;2023-03-14T02:00:46;0.35;;;0.35;;
66437;SDS011;54537;47.972;11.662;2023-03-14T02:03:14;2.30;;;0.40;;
66437;SDS011;54537;47.972;11.662;2023-03-14T02:05:44;0.65;;;0.40;;
66437;SDS011;54537;47.972;11.662;2023-03-14T02:08:13;0.85;;;0.50;;
66437;SDS011;54537;47.972;11.662;2023-03-14T02:10:41;1.95;;;0.60;;
66437;SDS011;54537;47.972;11.662;2023-03-14T02:13:09;3.10;;;0.40;;
66437;SDS011;54537;47.972;11.662;2023-03-14T02:15:36;1.50;;;0.70;;
66437;SDS011;54537;47.972;11.662;2023-03-14T02:18:04;1.17;;;0.50;;
66437;SDS011;54537;47.972;11.662;2023-03-14T02:20:32;1.02;;;0.50;;
66437;SDS011;54537;47.972;11.662;2023-03-14T02:23:03;1.95;;;0.70;;
66437;SDS011;54537;47.972;11.662;2023-03-14T02:25:31;2.75;;;0.50;;
66437;SDS011;54537;47.972;11.662;2023-03-14T02:28:03;0.80;;;0.40;;
66437;SDS011;54537;47.972;11.662;2023-03-14T02:30:30;2.83;;;0.47;;
66437;SDS011;54537;47.972;11.662;2023-03-14T02:32:58;0.35;;;0.32;;
66437;SDS011;54537;47.972;11.662;2023-03-14T02:35:27;0.68;;;0.30;;
66437;SDS011;54537;47.972;11.662;2023-03-14T02:37:56;0.82;;;0.40;;
66437;SDS011;54537;47.972;11.662;2023-03-14T02:40:26;0.30;;;0.30;;
66437;SDS011;54537;47.972;11.662;2023-03-14T02:42:53;0.68;;;0.50;;
66437;SDS011;54537;47.972;11.662;2023-03-14T02:45:28;2.13;;;0.50;;
66437;SDS011;54537;47.972;11.662;2023-03-14T02:48:01;1.02;;;0.60;;
66437;SDS011;54537;47.972;11.662;2023-03-14T02:50:30;1.00;;;0.52;;
66437;SDS011;54537;47.972;11.662;2023-03-14T02:52:58;2.10;;;0.50;;
66437;SDS011;54537;47.972;11.662;2023-03-14T02:55:24;1.02;;;0.43;;
66437;SDS011;54537;47.972;11.662;2023-03-14T02:57:51;1.85;;;0.40;;
66437;SDS011;54537;47.972;11.662;2023-03-14T03:00:18;0.40;;;0.30;;
66437;SDS011;54537;47.972;11.662;2023-03-14T03:02:46;0.75;;;0.40;;
66437;SDS011;54537;47.972;11.662;2023-03-14T03:05:13;0.60;;;0.30;;
66437;SDS011;54537;47.972;11.662;2023-03-14T03:07:40;1.17;;;0.25;;
66437;SDS011;54537;47.972;11.662;2023-03-14T03:10:06;2.30;;;0.30;;
66437;SDS011;54537;47.972;11.662;2023-03-14T03:12:34;0.65;;;0.30;;
66437;SDS011;54537;47.972;11.662;2023-03-14T03:15:01;1.08;;;0.40;;
66437;SDS011;54537;47.972;11.662;2023-03-14T03:17:27;1.85;;;0.60;;
66437;SDS011;54537;47.972;11.662;2023-03-14T03:19:55;0.30;;;0.30;;
66437;SDS011;54537;47.972;11.662;2023-03-14T03:22:22;2.05;;;0.50;;
66437;SDS011;54537;47.972;11.662;2023-03-14T03:24:48;0.38;;;0.32;;
66437;SDS011;54537;47.972;11.662;2023-03-14T03:27:15;0.38;;;0.20;;
66437;SDS011;54537;47.972;11.662;2023-03-14T03:29:41;0.50;;;0.50;;
66437;SDS011;54537;47.972;11.662;2023-03-14T03:32:08;0.15;;;0.15;;
66437;SDS011;54537;47.972;11.662;2023-03-14T03:34:34;0.30;;;0.30;;
66437;SDS011;54537;47.972;11.662;2023-03-14T03:37:02;1.30;;;0.30;;
66437;SDS011;54537;47.972;11.662;2023-03-14T03:39:29;0.52;;;0.20;;
66437;SDS011;54537;47.972;11.662;2023-03-14T03:41:55;0.30;;;0.20;;
66437;SDS011;54537;47.972;11.662;2023-03-14T03:44:22;0.73;;;0.13;;
66437;SDS011;54537;47.972;11.662;2023-03-14T03:46:48;0.30;;;0.30;;
66437;SDS011;54537;47.972;11.662;2023-03-14T03:49:15;0.22;;;0.22;;
66437;SDS011;54537;47.972;11.662;2023-03-14T03:51:41;0.20;;;0.20;;
66437;SDS011;54537;47.972;11.662;2023-03-14T03:54:09;0.10;;;0.10;;
66437;SDS011;54537;47.972;11.662;2023-03-14T03:56:35;0.22;;;0.22;;
66437;SDS011;54537;47.972;11.662;2023-03-14T03:59:02;0.10;;;0.10;;
66437;SDS011;54537;47.972;11.662;2023-03-14T04:01:28;0.43;;;0.10;;
66437;SDS011;54537;47.972;11.662;2023-03-14T04:03:55;0.75;;;0.20;;
66437;SDS011;54537;47.972;11.662;2023-03-14T04:06:22;0.30;;;0.20;;
66437;SDS011;54537;47.972;11.662;2023-03-14T04:08:48;1.95;;;0.40;;
66437;SDS011;54537;47.972;11.662;2023-03-14T04:11:16;0.73;;;0.28;;
66437;SDS011;54537;47.972;11.662;2023-03-14T04:13:43;0.20;;;0.20;;
66437;SDS011;54537;47.972;11.662;2023-03-14T04:16:11;0.35;;;0.10;;
66437;SDS011;54537;47.972;11.662;2023-03-14T04:18:40;0.98;;;0.20;;
66437;SDS011;54537;47.972;11.662;2023-03-14T04:21:07;0.32;;;0.32;;
66437;SDS011;54537;47.972;11.662;2023-03-14T04:23:33;0.15;;;0.15;;
66437;SDS011;54537;47.972;11.662;2023-03-14T04:26:00;0.20;;;0.20;;
66437;SDS011;54537;47.972;11.662;2023-03-14T04:28:28;0.25;;;0.25;;
66437;SDS011;54537;47.972;11.662;2023-03-14T04:30:54;0.10;;;0.10;;
66437;SDS011;54537;47.972;11.662;2023-03-14T04:33:21;0.35;;;0.35;;
66437;SDS011;54537;47.972;11.662;2023-03-14T04:35:47;0.10;;;0.10;;
66437;SDS011;54537;47.972;11.662;2023-03-14T04:38:15;0.20;;;0.20;;
66437;SDS011;54537;47.972;11.662;2023-03-14T04:40:42;0.10;;;0.10;;
66437;SDS011;54537;47.972;11.662;2023-03-14T04:43:08;0.10;;;0.10;;
66437;SDS011;54537;47.972;11.662;2023-03-14T04:45:39;0.35;;;0.20;;
66437;SDS011;54537;47.972;11.662;2023-03-14T04:48:07;0.10;;;0.10;;
66437;SDS011;54537;47.972;11.662;2023-03-14T04:50:34;0.13;;;0.13;;
66437;SDS011;54537;47.972;11.662;2023-03-14T04:53:00;0.10;;;0.10;;
66437;SDS011;54537;47.972;11.662;2023-03-14T04:55:27;0.20;;;0.20;;
66437;SDS011;54537;47.972;11.662;2023-03-14T04:57:53;0.20;;;0.20;;
66437;SDS011;54537;47.972;11.662;2023-03-14T05:00:20;0.10;;;0.10;;
66437;SDS011;54537;47.972;11.662;2023-03-14T05:02:48;0.20;;;0.20;;
66437;SDS011;54537;47.972;11.662;2023-03-14T05:05:15;0.30;;;0.10;;
66437;SDS011;54537;47.972;11.662;2023-03-14T05:07:41;0.08;;;0.08;;
66437;SDS011;54537;47.972;11.662;2023-03-14T05:10:08;0.17;;;0.17;;
66437;SDS011;54537;47.972;11.662;2023-03-14T05:12:36;0.65;;;0.17;;
66437;SDS011;54537;47.972;11.662;2023-03-14T05:15:02;0.25;;;0.25;;
66437;SDS011;54537;47.972;11.662;2023-03-14T05:17:30;0.20;;;0.20;;
66437;SDS011;54537;47.972;11.662;2023-03-14T05:19:57;0.20;;;0.20;;
66437;SDS011;54537;47.972;11.662;2023-03-14T05:22:24;0.32;;;0.17;;
66437;SDS011;54537;47.972;11.662;2023-03-14T05:24:51;1.27;;;0.20;;
66437;SDS011;54537;47.972;11.662;2023-03-14T05:27:18;0.10;;;0.10;;
66437;SDS011;54537;47.972;11.662;2023-03-14T05:29:45;0.63;;;0.30;;
66437;SDS011;54537;47.972;11.662;2023-03-14T05:32:13;0.20;;;0.20;;
66437;SDS011;54537;47.972;11.662;2023-03-14T05:34:39;0.57;;;0.20;;
66437;SDS011;54537;47.972;11.662;2023-03-14T05:37:07;0.75;;;0.40;;
66437;SDS011;54537;47.972;11.662;2023-03-14T05:39:34;0.50;;;0.50;;
66437;SDS011;54537;47.972;11.662;2023-03-14T05:42:00;0.95;;;0.10;;
66437;SDS011;54537;47.972;11.662;2023-03-14T05:44:27;0.32;;;0.17;;
66437;SDS011;54537;47.972;11.662;2023-03-14T05:46:53;0.43;;;0.30;;
66437;SDS011;54537;47.972;11.662;2023-03-14T05:49:20;0.68;;;0.63;;
66437;SDS011;54537;47.972;11.662;2023-03-14T05:51:46;0.75;;;0.28;;
66437;SDS011;54537;47.972;11.662;2023-03-14T05:54:14;0.20;;;0.20;;
66437;SDS011;54537;47.972;11.662;2023-03-14T05:56:41;0.30;;;0.22;;
66437;SDS011;54537;47.972;11.662;2023-03-14T05:59:07;1.30;;;0.25;;
66437;SDS011;54537;47.972;11.662;2023-03-14T06:01:34;0.57;;;0.20;;
66437;SDS011;54537;47.972;11.662;2023-03-14T06:04:01;0.35;;;0.35;;
66437;SDS011;54537;47.972;11.662;2023-03-14T06:06:29;2.50;;;0.50;;
66437;SDS011;54537;47.972;11.662;2023-03-14T06:08:55;0.52;;;0.38;;
66437;SDS011;54537;47.972;11.662;2023-03-14T06:11:23;0.57;;;0.35;;
66437;SDS011;54537;47.972;11.662;2023-03-14T06:13:50;1.08;;;0.50;;
66437;SDS011;54537;47.972;11.662;2023-03-14T06:16:16;1.17;;;0.40;;
66437;SDS011;54537;47.972;11.662;2023-03-14T06:18:43;1.45;;;0.30;;
66437;SDS011;54537;47.972;11.662;2023-03-14T06:21:11;1.75;;;0.70;;
66437;SDS011;54537;47.972;11.662;2023-03-14T06:23:38;4.68;;;2.20;;
66437;SDS011;54537;47.972;11.662;2023-03-14T06:26:05;4.93;;;2.08;;
66437;SDS011;54537;47.972;11.662;2023-03-14T06:28:33;2.20;;;1.02;;
66437;SDS011;54537;47.972;11.662;2023-03-14T06:30:59;2.97;;;1.60;;
66437;SDS011;54537;47.972;11.662;2023-03-14T06:33:26;5.20;;;2.45;;
66437;SDS011;54537;47.972;11.662;2023-03-14T06:35:53;1.60;;;1.20;;
66437;SDS011;54537;47.972;11.662;2023-03-14T06:38:19;3.40;;;1.00;;
66437;SDS011;54537;47.972;11.662;2023-03-14T06:40:46;1.33;;;0.82;;
66437;SDS011;54537;47.972;11.662;2023-03-14T06:43:12;0.93;;;0.55;;
66437;SDS011;54537;47.972;11.662;2023-03-14T06:45:40;0.30;;;0.30;;
66437;SDS011;54537;47.972;11.662;2023-03-14T06:48:06;0.45;;;0.40;;
66437;SDS011;54537;47.972;11.662;2023-03-14T06:50:33;0.38;;;0.38;;
66437;SDS011;54537;47.972;11.662;2023-03-14T06:53:00;1.13;;;0.50;;
66437;SDS011;54537;47.972;11.662;2023-03-14T06:55:26;0.43;;;0.43;;
66437;SDS011;54537;47.972;11.662;2023-03-14T06:57:53;0.68;;;0.60;;
66437;SDS011;54537;47.972;11.662;2023-03-14T07:00:19;1.00;;;0.68;;
66437;SDS011;54537;47.972;11.662;2023-03-14T07:02:48;1.98;;;0.70;;
66437;SDS011;54537;47.972;11.662;2023-03-14T07:05:14;0.40;;;0.40;;
66437;SDS011;54537;47.972;11.662;2023-03-14T07:07:41;1.48;;;0.70;;
66437;SDS011;54537;47.972;11.662;2023-03-14T07:10:08;0.65;;;0.40;;
66437;SDS011;54537;47.972;11.662;2023-03-14T07:12:35;0.82;;;0.70;;
66437;SDS011;54537;47.972;11.662;2023-03-14T07:15:01;0.90;;;0.60;;
66437;SDS011;54537;47.972;11.662;2023-03-14T07:17:28;1.15;;;0.50;;
66437;SDS011;54537;47.972;11.662;2023-03-14T07:19:56;0.50;;;0.30;;
66437;SDS011;54537;47.972;11.662;2023-03-14T07:22:24;1.77;;;0.85;;
66437;SDS011;54537;47.972;11.662;2023-03-14T07:24:51;2.25;;;0.70;;
66437;SDS011;54537;47.972;11.662;2023-03-14T07:27:17;2.20;;;0.30;;
66437;SDS011;54537;47.972;11.662;2023-03-14T07:29:44;0.47;;;0.40;;
66437;SDS011;54537;47.972;11.662;2023-03-14T07:32:10;0.75;;;0.55;;
66437;SDS011;54537;47.972;11.662;2023-03-14T07:34:39;0.35;;;0.30;;
66437;SDS011;54537;47.972;11.662;2023-03-14T07:37:07;0.75;;;0.70;;
66437;SDS011;54537;47.972;11.662;2023-03-14T07:39:34;2.78;;;0.45;;
66437;SDS011;54537;47.972;11.662;2023-03-14T07:42:00;1.23;;;0.43;;
66437;SDS011;54537;47.972;11.662;2023-03-14T07:44:27;1.05;;;0.40;;
66437;SDS011;54537;47.972;11.662;2023-03-14T07:46:54;0.73;;;0.40;;
66437;SDS011;54537;47.972;11.662;2023-03-14T07:49:20;0.43;;;0.30;;
66437;SDS011;54537;47.972;11.662;2023-03-14T07:51:47;1.35;;;0.65;;
66437;SDS011;54537;47.972;11.662;2023-03-14T07:54:15;0.90;;;0.73;;
66437;SDS011;54537;47.972;11.662;2023-03-14T07:56:41;1.35;;;0.50;;
66437;SDS011;54537;47.972;11.662;2023-03-14T07:59:08;0.68;;;0.50;;
66437;SDS011;54537;47.972;11.662;2023-03-14T08:01:36;0.50;;;0.45;;
66437;SDS011;54537;47.972;11.662;2023-03-14T08:04:02;1.58;;;0.70;;
66437;SDS011;54537;47.972;11.662;2023-03-14T08:06:29;0.50;;;0.47;;
66437;SDS011;54537;47.972;11.662;2023-03-14T08:08:56;2.33;;;0.52;;
66437;SDS011;54537;47.972;11.662;2023-03-14T08:11:23;0.25;;;0.25;;
66437;SDS011;54537;47.972;11.662;2023-03-14T08:13:50;2.20;;;0.50;;
66437;SDS011;54537;47.972;11.662;2023-03-14T08:16:17;0.80;;;0.70;;
66437;SDS011;54537;47.972;11.662;2023-03-14T08:18:44;2.33;;;0.68;;
66437;SDS011;54537;47.972;11.662;2023-03-14T08:21:11;1.02;;;0.50;;
66437;SDS011;54537;47.972;11.662;2023-03-14T08:23:37;0.63;;;0.30;;
66437;SDS011;54537;47.972;11.662;2023-03-14T08:26:04;1.25;;;0.20;;
66437;SDS011;54537;47.972;11.662;2023-03-14T08:28:32;0.50;;;0.50;;
66437;SDS011;54537;47.972;11.662;2023-03-14T08:30:59;0.82;;;0.40;;
66437;SDS011;54537;47.972;11.662;2023-03-14T08:33:26;1.30;;;0.75;;
66437;SDS011;54537;47.972;11.662;2023-03-14T08:35:54;0.63;;;0.55;;
66437;SDS011;54537;47.972;11.662;2023-03-14T08:38:21;1.13;;;0.50;;
66437;SDS011;54537;47.972;11.662;2023-03-14T08:40:48;2.28;;;1.13;;
66437;SDS011;54537;47.972;11.662;2023-03-14T08:43:14;1.75;;;1.35;;
66437;SDS011;54537;47.972;11.662;2023-03-14T08:45:43;2.25;;;1.23;;
66437;SDS011;54537;47.972;11.662;2023-03-14T08:48:09;2.28;;;1.10;;
66437;SDS011;54537;47.972;11.662;2023-03-14T08:50:36;4.18;;;1.45;;
66437;SDS011;54537;47.972;11.662;2023-03-14T08:53:02;7.38;;;3.55;;
66437;SDS011;54537;47.972;11.662;2023-03-14T08:55:29;1.90;;;1.40;;
66437;SDS011;54537;47.972;11.662;2023-03-14T08:57:55;2.65;;;1.65;;
66437;SDS011;54537;47.972;11.662;2023-03-14T09:00:22;2.00;;;0.93;;
66437;SDS011;54537;47.972;11.662;2023-03-14T09:02:50;2.97;;;0.80;;
66437;SDS011;54537;47.972;11.662;2023-03-14T09:05:16;0.88;;;0.70;;
66437;SDS011;54537;47.972;11.662;2023-03-14T09:07:43;1.10;;;0.50;;
66437;SDS011;54537;47.972;11.662;2023-03-14T09:10:10;1.10;;;0.65;;
66437;SDS011;54537;47.972;11.662;2023-03-14T09:12:37;0.75;;;0.55;;
66437;SDS011;54537;47.972;11.662;2023-03-14T09:15:03;1.05;;;0.77;;
66437;SDS011;54537;47.972;11.662;2023-03-14T09:17:30;3.55;;;0.90;;
66437;SDS011;54537;47.972;11.662;2023-03-14T09:19:58;1.67;;;0.75;;
66437;SDS011;54537;47.972;11.662;2023-03-14T09:22:25;7.60;;;1.00;;
66437;SDS011;54537;47.972;11.662;2023-03-14T09:24:52;1.10;;;0.80;;
66437;SDS011;54537;47.972;11.662;2023-03-14T09:27:18;2.28;;;1.10;;
66437;SDS011;54537;47.972;11.662;2023-03-14T09:29:45;1.88;;;0.88;;
66437;SDS011;54537;47.972;11.662;2023-03-14T09:32:11;2.10;;;0.90;;
66437;SDS011;54537;47.972;11.662;2023-03-14T09:34:38;5.43;;;1.10;;
66437;SDS011;54537;47.972;11.662;2023-03-14T09:37:06;1.98;;;1.00;;
66437;SDS011;54537;47.972;11.662;2023-03-14T09:39:32;3.78;;;1.00;;
66437;SDS011;54537;47.972;11.662;2023-03-14T09:41:59;2.70;;;0.98;;
66437;SDS011;54537;47.972;11.662;2023-03-14T09:44:30;1.45;;;0.75;;
66437;SDS011;54537;47.972;11.662;2023-03-14T09:47:00;3.78;;;0.88;;
66437;SDS011;54537;47.972;11.662;2023-03-14T09:49:29;1.42;;;0.80;;
66437;SDS011;54537;47.972;11.662;2023-03-14T09:51:57;3.17;;;1.52;;
66437;SDS011;54537;47.972;11.662;2023-03-14T09:54:31;1.80;;;1.00;;
66437;SDS011;54537;47.972;11.662;2023-03-14T09:57:01;2.75;;;0.77;;
66437;SDS011;54537;47.972;11.662;2023-03-14T09:59:29;1.88;;;1.02;;
66437;SDS011;54537;47.972;11.662;2023-03-14T10:01:56;1.45;;;0.82;;
66437;SDS011;54537;47.972;11.662;2023-03-14T10:04:24;1.05;;;0.73;;
66437;SDS011;54537;47.972;11.662;2023-03-14T10:06:52;1.00;;;0.70;;
66437;SDS011;54537;47.972;11.662;2023-03-14T10:09:19;2.45;;;0.80;;
66437;SDS011;54537;47.972;11.662;2023-03-14T10:11:52;3.30;;;1.10;;
66437;SDS011;54537;47.972;11.662;2023-03-14T10:14:31;2.00;;;0.60;;
66437;SDS011;54537;47.972;11.662;2023-03-14T10:17:04;0.63;;;0.63;;
66437;SDS011;54537;47.972;11.662;2023-03-14T10:19:32;3.13;;;0.85;;
66437;SDS011;54537;47.972;11.662;2023-03-14T10:22:01;1.02;;;0.63;;
66437;SDS011;54537;47.972;11.662;2023-03-14T10:24:29;0.95;;;0.50;;
66437;SDS011;54537;47.972;11.662;2023-03-14T10:26:59;1.77;;;0.70;;
66437;SDS011;54537;47.972;11.662;2023-03-14T10:29:27;3.55;;;0.75;;
66437;SDS011;54537;47.972;11.662;2023-03-14T10:31:55;1.00;;;0.60;;
66437;SDS011;54537;47.972;11.662;2023-03-14T10:36:53;2.10;;;0.73;;
66437;SDS011;54537;47.972;11.662;2023-03-14T10:39:22;2.13;;;0.80;;
66437;SDS011;54537;47.972;11.662;2023-03-14T10:41:52;2.15;;;0.60;;
66437;SDS011;54537;47.972;11.662;2023-03-14T10:44:22;2.33;;;0.60;;
66437;SDS011;54537;47.972;11.662;2023-03-14T10:46:55;2.55;;;0.43;;
66437;SDS011;54537;47.972;11.662;2023-03-14T10:49:25;2.15;;;0.40;;
66437;SDS011;54537;47.972;11.662;2023-03-14T10:51:54;0.38;;;0.38;;
66437;SDS011;54537;47.972;11.662;2023-03-14T10:54:21;0.95;;;0.45;;
66437;SDS011;54537;47.972;11.662;2023-03-14T10:56:55;0.60;;;0.30;;
66437;SDS011;54537;47.972;11.662;2023-03-14T10:59:24;0.90;;;0.50;;
66437;SDS011;54537;47.972;11.662;2023-03-14T11:01:52;2.67;;;0.50;;
66437;SDS011;54537;47.972;11.662;2023-03-14T11:04:26;0.38;;;0.38;;
66437;SDS011;54537;47.972;11.662;2023-03-14T11:07:04;3.42;;;0.70;;
66437;SDS011;54537;47.972;11.662;2023-03-14T11:09:35;1.83;;;0.90;;
66437;SDS011;54537;47.972;11.662;2023-03-14T11:12:23;7.05;;;1.15;;
66437;SDS011;54537;47.972;11.662;2023-03-14T11:15:09;2.03;;;0.43;;
66437;SDS011;54537;47.972;11.662;2023-03-14T11:17:41;8.73;;;0.80;;
66437;SDS011;54537;47.972;11.662;2023-03-14T11:20:17;1.77;;;0.50;;
66437;SDS011;54537;47.972;11.662;2023-03-14T11:22:53;1.40;;;0.50;;
66437;SDS011;54537;47.972;11.662;2023-03-14T11:25:26;2.15;;;0.40;;
66437;SDS011;54537;47.972;11.662;2023-03-14T11:27:55;0.55;;;0.50;;
66437;SDS011;54537;47.972;11.662;2023-03-14T11:30:31;2.30;;;0.50;;
66437;SDS011;54537;47.972;11.662;2023-03-14T11:33:02;0.88;;;0.50;;
66437;SDS011;54537;47.972;11.662;2023-03-14T11:35:33;1.85;;;0.52;;
66437;SDS011;54537;47.972;11.662;2023-03-14T11:38:03;0.52;;;0.32;;
66437;SDS011;54537;47.972;11.662;2023-03-14T11:40:36;3.33;;;0.68;;
66437;SDS011;54537;47.972;11.662;2023-03-14T11:43:06;2.05;;;0.70;;
66437;SDS011;54537;47.972;11.662;2023-03-14T11:45:38;2.83;;;0.70;;
66437;SDS011;54537;47.972;11.662;2023-03-14T11:48:20;3.60;;;0.55;;
66437;SDS011;54537;47.972;11.662;2023-03-14T11:50:52;1.60;;;0.50;;
66437;SDS011;54537;47.972;11.662;2023-03-14T11:53:19;0.47;;;0.28;;
66437;SDS011;54537;47.972;11.662;2023-03-14T11:55:48;1.05;;;0.45;;
66437;SDS011;54537;47.972;11.662;2023-03-14T11:58:17;0.40;;;0.32;;
66437;SDS011;54537;47.972;11.662;2023-03-14T12:00:48;0.88;;;0.40;;
66437;SDS011;54537;47.972;11.662;2023-03-14T12:03:17;0.77;;;0.77;;
66437;SDS011;54537;47.972;11.662;2023-03-14T12:05:53;0.35;;;0.30;;
66437;SDS011;54537;47.972;11.662;2023-03-14T12:08:31;3.05;;;0.73;;
66437;SDS011;54537;47.972;11.662;2023-03-14T12:11:04;0.40;;;0.38;;
66437;SDS011;54537;47.972;11.662;2023-03-14T12:13:38;0.95;;;0.50;;
66437;SDS011;54537;47.972;11.662;2023-03-14T12:16:07;2.97;;;0.60;;
66437;SDS011;54537;47.972;11.662;2023-03-14T12:18:53;1.20;;;0.57;;
66437;SDS011;54537;47.972;11.662;2023-03-14T12:21:41;2.95;;;0.90;;
66437;SDS011;54537;47.972;11.662;2023-03-14T12:24:15;5.20;;;0.43;;
66437;SDS011;54537;47.972;11.662;2023-03-14T12:26:46;1.35;;;0.50;;
66437;SDS011;54537;47.972;11.662;2023-03-14T12:29:17;1.23;;;0.50;;
66437;SDS011;54537;47.972;11.662;2023-03-14T12:31:45;1.65;;;0.70;;
66437;SDS011;54537;47.972;11.662;2023-03-14T12:34:26;0.50;;;0.50;;
66437;SDS011;54537;47.972;11.662;2023-03-14T12:36:55;1.30;;;0.50;;
66437;SDS011;54537;47.972;11.662;2023-03-14T12:39:47;1.20;;;0.85;;
66437;SDS011;54537;47.972;11.662;2023-03-14T12:42:21;1.33;;;0.70;;
66437;SDS011;54537;47.972;11.662;2023-03-14T12:44:50;1.83;;;0.50;;
66437;SDS011;54537;47.972;11.662;2023-03-14T12:50:29;1.20;;;0.50;;
66437;SDS011;54537;47.972;11.662;2023-03-14T12:56:04;0.98;;;0.50;;
66437;SDS011;54537;47.972;11.662;2023-03-14T12:58:36;3.47;;;1.00;;
66437;SDS011;54537;47.972;11.662;2023-03-14T13:01:07;0.70;;;0.40;;
66437;SDS011;54537;47.972;11.662;2023-03-14T13:03:43;1.08;;;0.57;;
66437;SDS011;54537;47.972;11.662;2023-03-14T13:06:13;6.30;;;0.70;;
66437;SDS011;54537;47.972;11.662;2023-03-14T13:08:40;0.80;;;0.30;;
66437;SDS011;54537;47.972;11.662;2023-03-14T13:11:08;0.65;;;0.32;;
66437;SDS011;54537;47.972;11.662;2023-03-14T13:13:37;0.70;;;0.32;;
66437;SDS011;54537;47.972;11.662;2023-03-14T13:16:09;3.10;;;0.40;;
66437;SDS011;54537;47.972;11.662;2023-03-14T13:18:40;4.68;;;0.82;;
66437;SDS011;54537;47.972;11.662;2023-03-14T13:21:07;0.13;;;0.13;;
66437;SDS011;54537;47.972;11.662;2023-03-14T13:23:39;1.25;;;0.30;;
66437;SDS011;54537;47.972;11.662;2023-03-14T13:26:06;4.43;;;0.32;;
66437;SDS011;54537;47.972;11.662;2023-03-14T13:28:37;0.30;;;0.30;;
66437;SDS011;54537;47.972;11.662;2023-03-14T13:31:04;0.40;;;0.30;;
66437;SDS011;54537;47.972;11.662;2023-03-14T13:33:32;1.13;;;0.50;;
66437;SDS011;54537;47.972;11.662;2023-03-14T13:36:00;1.75;;;0.32;;
66437;SDS011;54537;47.972;11.662;2023-03-14T13:38:29;2.38;;;0.60;;
66437;SDS011;54537;47.972;11.662;2023-03-14T13:40:57;0.32;;;0.30;;
66437;SDS011;54537;47.972;11.662;2023-03-14T13:43:26;0.20;;;0.20;;
66437;SDS011;54537;47.972;11.662;2023-03-14T13:45:56;0.45;;;0.45;;
66437;SDS011;54537;47.972;11.662;2023-03-14T13:48:29;0.10;;;0.10;;
66437;SDS011;54537;47.972;11.662;2023-03-14T13:50:58;0.10;;;0.10;;
66437;SDS011;54537;47.972;11.662;2023-03-14T13:53:26;1.27;;;0.30;;
66437;SDS011;54537;47.972;11.662;2023-03-14T13:55:54;0.10;;;0.10;;
66437;SDS011;54537;47.972;11.662;2023-03-14T13:58:25;2.45;;;0.32;;
66437;SDS011;54537;47.972;11.662;2023-03-14T14:00:59;0.22;;;0.15;;
66437;SDS011;54537;47.972;11.662;2023-03-14T14:03:32;0.52;;;0.30;;
66437;SDS011;54537;47.972;11.662;2023-03-14T14:05:59;0.22;;;0.22;;
66437;SDS011;54537;47.972;11.662;2023-03-14T14:08:26;0.38;;;0.35;;
66437;SDS011;54537;47.972;11.662;2023-03-14T14:10:55;0.05;;;0.05;;
66437;SDS011;54537;47.972;11.662;2023-03-14T14:13:25;0.10;;;0.10;;
66437;SDS011;54537;47.972;11.662;2023-03-14T14:15:53;0.30;;;0.30;;
66437;SDS011;54537;47.972;11.662;2023-03-14T14:18:21;0.55;;;0.32;;
66437;SDS011;54537;47.972;11.662;2023-03-14T14:20:50;0.30;;;0.30;;
66437;SDS011;54537;47.972;11.662;2023-03-14T14:23:17;0.20;;;0.20;;
66437;SDS011;54537;47.972;11.662;2023-03-14T14:25:50;0.43;;;0.40;;
66437;SDS011;54537;47.972;11.662;2023-03-14T14:28:23;0.98;;;0.40;;
66437;SDS011;54537;47.972;11.662;2023-03-14T14:31:03;0.73;;;0.20;;
66437;SDS011;54537;47.972;11.662;2023-03-14T14:36:13;0.20;;;0.20;;
66437;SDS011;54537;47.972;11.662;2023-03-14T14:38:41;0.30;;;0.30;;
66437;SDS011;54537;47.972;11.662;2023-03-14T14:41:10;0.38;;;0.30;;
66437;SDS011;54537;47.972;11.662;2023-03-14T14:43:39;1.33;;;0.30;;
66437;SDS011;54537;47.972;11.662;2023-03-14T14:46:06;0.25;;;0.25;;
66437;SDS011;54537;47.972;11.662;2023-03-14T14:48:35;1.02;;;0.30;;
66437;SDS011;54537;47.972;11.662;2023-03-14T14:51:03;0.10;;;0.10;;
66437;SDS011;54537;47.972;11.662;2023-03-14T14:53:35;0.60;;;0.40;;
66437;SDS011;54537;47.972;11.662;2023-03-14T14:56:03;0.25;;;0.25;;
66437;SDS011;54537;47.972;11.662;2023-03-14T14:58:33;0.28;;;0.20;;